createdAt,value
2018-06-10T00:00:12.199Z,23.80
2018-06-10T00:00:43.938Z,23.80
2018-06-10T00:01:15.714Z,23.80
2018-06-10T00:01:47.445Z,23.80
2018-06-10T00:02:19.290Z,23.80
2018-06-10T00:02:51.012Z,23.80
2018-06-10T00:03:22.783Z,23.80
2018-06-10T00:03:54.498Z,23.80
2018-06-10T00:04:26.237Z,23.80
2018-06-10T00:04:57.997Z,23.80
2018-06-10T00:06:01.745Z,23.80
2018-06-10T00:06:33.474Z,23.80
2018-06-10T00:07:05.194Z,23.70
2018-06-10T00:08:08.960Z,23.70
2018-06-10T00:08:40.793Z,23.80
2018-06-10T00:09:12.484Z,23.80
2018-06-10T00:09:44.394Z,23.80
2018-06-10T00:10:16.133Z,23.80
2018-06-10T00:10:47.852Z,23.80
2018-06-10T00:11:19.570Z,23.80
2018-06-10T00:11:51.335Z,23.80
2018-06-10T00:12:23.042Z,23.80
2018-06-10T00:12:54.767Z,23.80
2018-06-10T00:13:26.539Z,23.80
2018-06-10T00:13:58.488Z,23.80
2018-06-10T00:14:30.385Z,23.80
2018-06-10T00:15:02.131Z,23.80
2018-06-10T00:15:33.898Z,23.80
2018-06-10T00:16:05.639Z,23.80
2018-06-10T00:16:37.369Z,23.80
2018-06-10T00:17:09.102Z,23.80
2018-06-10T00:17:40.825Z,23.80
2018-06-10T00:18:12.558Z,23.80
2018-06-10T00:18:44.310Z,23.80
2018-06-10T00:19:16.026Z,23.80
2018-06-10T00:19:47.775Z,23.80
2018-06-10T00:20:19.515Z,23.80
2018-06-10T00:20:51.242Z,23.80
2018-06-10T00:21:23.005Z,23.80
2018-06-10T00:21:54.755Z,23.80
2018-06-10T00:22:26.492Z,23.80
2018-06-10T00:22:58.216Z,23.80
2018-06-10T00:23:29.954Z,23.80
2018-06-10T00:24:01.733Z,23.90
2018-06-10T00:24:33.461Z,23.80
2018-06-10T00:25:05.191Z,23.80
2018-06-10T00:25:36.914Z,23.80
2018-06-10T00:26:08.660Z,23.80
2018-06-10T00:26:40.396Z,23.80
2018-06-10T00:27:12.113Z,23.80
2018-06-10T00:27:43.860Z,23.80
2018-06-10T00:28:47.592Z,23.80
2018-06-10T00:29:19.322Z,23.80
2018-06-10T00:29:51.042Z,23.80
2018-06-10T00:30:22.769Z,23.80
2018-06-10T00:30:54.498Z,23.80
2018-06-10T00:31:26.247Z,23.80
2018-06-10T00:31:58.030Z,23.80
2018-06-10T00:32:29.758Z,23.90
2018-06-10T00:33:01.495Z,23.90
2018-06-10T00:33:33.217Z,23.80
2018-06-10T00:34:04.960Z,23.80
2018-06-10T00:34:36.955Z,23.80
2018-06-10T00:35:08.729Z,23.80
2018-06-10T00:35:40.449Z,23.80
2018-06-10T00:36:12.186Z,23.80
2018-06-10T00:36:43.930Z,23.80
2018-06-10T00:37:15.905Z,23.80
2018-06-10T00:37:47.659Z,23.80
2018-06-10T00:38:19.613Z,23.80
2018-06-10T00:38:51.377Z,23.80
2018-06-10T00:39:23.122Z,23.80
2018-06-10T00:39:54.851Z,23.80
2018-06-10T00:40:26.573Z,23.80
2018-06-10T00:40:58.316Z,23.80
2018-06-10T00:41:30.059Z,23.80
2018-06-10T00:42:01.818Z,23.80
2018-06-10T00:42:33.542Z,23.80
2018-06-10T00:43:05.274Z,23.80
2018-06-10T00:43:36.994Z,23.80
2018-06-10T00:44:08.727Z,23.80
2018-06-10T00:44:40.512Z,23.80
2018-06-10T00:45:12.212Z,23.80
2018-06-10T00:45:43.941Z,23.90
2018-06-10T00:46:15.706Z,23.80
2018-06-10T00:46:47.430Z,23.80
2018-06-10T00:47:19.167Z,23.80
2018-06-10T00:47:50.882Z,23.80
2018-06-10T00:48:22.594Z,23.80
2018-06-10T00:48:54.333Z,23.80
2018-06-10T00:49:26.078Z,23.80
2018-06-10T00:49:57.812Z,23.80
2018-06-10T00:50:29.722Z,23.80
2018-06-10T00:51:01.520Z,23.80
2018-06-10T00:51:33.285Z,23.80
2018-06-10T00:52:05.016Z,23.80
2018-06-10T00:52:36.784Z,23.80
2018-06-10T00:53:08.666Z,23.80
2018-06-10T00:53:40.390Z,23.80
2018-06-10T00:54:12.114Z,23.80
2018-06-10T00:54:44.044Z,23.80
2018-06-10T00:55:15.802Z,23.80
2018-06-10T00:56:19.574Z,23.80
2018-06-10T00:56:51.334Z,23.80
2018-06-10T00:57:23.043Z,23.80
2018-06-10T00:57:54.770Z,23.80
2018-06-10T00:58:26.542Z,23.80
2018-06-10T00:58:58.369Z,23.80
2018-06-10T00:59:30.090Z,23.80
2018-06-10T01:00:01.831Z,23.80
2018-06-10T01:00:33.537Z,23.80
2018-06-10T01:01:05.264Z,23.80
2018-06-10T01:01:36.993Z,23.80
2018-06-10T01:02:08.726Z,23.80
2018-06-10T01:02:40.438Z,23.80
2018-06-10T01:03:12.167Z,23.80
2018-06-10T01:03:43.900Z,23.80
2018-06-10T01:04:15.641Z,23.80
2018-06-10T01:04:47.357Z,23.80
2018-06-10T01:05:19.082Z,23.80
2018-06-10T01:05:50.821Z,23.80
2018-06-10T01:06:22.575Z,23.80
2018-06-10T01:06:54.305Z,23.70
2018-06-10T01:07:26.353Z,23.70
2018-06-10T01:07:58.112Z,23.80
2018-06-10T01:08:29.847Z,23.80
2018-06-10T01:09:01.702Z,23.80
2018-06-10T01:09:33.624Z,23.80
2018-06-10T01:10:05.371Z,23.70
2018-06-10T01:10:37.116Z,23.80
2018-06-10T01:11:08.873Z,23.80
2018-06-10T01:11:40.595Z,23.80
2018-06-10T01:12:12.360Z,23.80
2018-06-10T01:12:44.315Z,23.80
2018-06-10T01:13:16.085Z,23.80
2018-06-10T01:13:47.850Z,23.80
2018-06-10T01:14:19.581Z,23.80
2018-06-10T01:14:51.312Z,23.80
2018-06-10T01:15:23.068Z,23.80
2018-06-10T01:15:54.843Z,23.80
2018-06-10T01:16:58.624Z,23.80
2018-06-10T01:17:30.392Z,23.80
2018-06-10T01:18:02.121Z,23.80
2018-06-10T01:18:33.871Z,23.80
2018-06-10T01:19:05.617Z,23.80
2018-06-10T01:19:37.380Z,23.80
2018-06-10T01:20:09.123Z,23.80
2018-06-10T01:20:41.033Z,23.80
2018-06-10T01:21:13.043Z,23.80
2018-06-10T01:21:44.764Z,23.80
2018-06-10T01:22:16.517Z,23.80
2018-06-10T01:22:48.284Z,23.80
2018-06-10T01:23:20.052Z,23.80
2018-06-10T01:23:51.808Z,23.80
2018-06-10T01:24:23.521Z,23.80
2018-06-10T01:24:55.272Z,23.80
2018-06-10T01:25:27.133Z,23.80
2018-06-10T01:25:58.854Z,23.80
2018-06-10T01:26:30.634Z,23.80
2018-06-10T01:27:02.401Z,23.80
2018-06-10T01:27:34.145Z,23.70
2018-06-10T01:28:05.921Z,23.80
2018-06-10T01:28:37.677Z,23.70
2018-06-10T01:29:09.418Z,23.70
2018-06-10T01:29:41.218Z,23.70
2018-06-10T01:30:12.975Z,23.70
2018-06-10T01:30:44.716Z,23.70
2018-06-10T01:31:16.495Z,23.70
2018-06-10T01:31:48.238Z,23.70
2018-06-10T01:32:20.015Z,23.70
2018-06-10T01:32:52.029Z,23.70
2018-06-10T01:33:23.754Z,23.70
2018-06-10T01:33:55.693Z,23.70
2018-06-10T01:34:27.626Z,23.70
2018-06-10T01:34:59.410Z,23.70
2018-06-10T01:35:31.301Z,23.70
2018-06-10T01:36:03.094Z,23.70
2018-06-10T01:36:34.877Z,23.70
2018-06-10T01:37:06.949Z,23.70
2018-06-10T01:37:38.706Z,23.70
2018-06-10T01:38:10.499Z,23.70
2018-06-10T01:38:42.215Z,23.70
2018-06-10T01:39:13.970Z,23.70
2018-06-10T01:39:45.817Z,23.70
2018-06-10T01:40:17.794Z,23.70
2018-06-10T01:40:49.520Z,23.80
2018-06-10T01:41:21.233Z,23.80
2018-06-10T01:41:52.993Z,23.80
2018-06-10T01:42:24.745Z,23.80
2018-06-10T01:42:56.482Z,23.80
2018-06-10T01:43:28.242Z,23.80
2018-06-10T01:43:59.967Z,23.80
2018-06-10T01:44:31.702Z,23.80
2018-06-10T01:45:03.449Z,23.80
2018-06-10T01:46:07.439Z,23.70
2018-06-10T01:46:39.201Z,23.70
2018-06-10T01:47:11.181Z,23.70
2018-06-10T01:47:42.906Z,23.70
2018-06-10T01:48:14.654Z,23.70
2018-06-10T01:48:46.421Z,23.70
2018-06-10T01:49:18.149Z,23.70
2018-06-10T01:49:49.978Z,23.60
2018-06-10T01:50:21.714Z,23.60
2018-06-10T01:50:53.457Z,23.60
2018-06-10T01:51:25.208Z,23.60
2018-06-10T01:51:57.115Z,23.60
2018-06-10T01:52:28.870Z,23.60
2018-06-10T01:53:00.876Z,23.60
2018-06-10T01:53:32.765Z,23.60
2018-06-10T01:54:04.722Z,23.60
2018-06-10T01:54:36.672Z,23.60
2018-06-10T01:55:08.511Z,23.60
2018-06-10T01:55:40.277Z,23.60
2018-06-10T01:56:12.041Z,23.60
2018-06-10T01:56:43.741Z,23.60
2018-06-10T01:57:15.492Z,23.60
2018-06-10T01:57:47.261Z,23.60
2018-06-10T01:58:18.998Z,23.60
2018-06-10T01:58:50.739Z,23.60
2018-06-10T01:59:22.482Z,23.60
2018-06-10T01:59:54.283Z,23.60
2018-06-10T02:00:26.011Z,23.60
2018-06-10T02:00:57.748Z,23.60
2018-06-10T02:01:29.484Z,23.60
2018-06-10T02:02:01.209Z,23.60
2018-06-10T02:02:32.969Z,23.60
2018-06-10T02:03:04.698Z,23.60
2018-06-10T02:03:36.617Z,23.60
2018-06-10T02:04:08.384Z,23.60
2018-06-10T02:04:40.129Z,23.60
2018-06-10T02:05:11.917Z,23.60
2018-06-10T02:05:43.630Z,23.60
2018-06-10T02:06:15.357Z,23.50
2018-06-10T02:06:47.081Z,23.50
2018-06-10T02:07:18.857Z,23.50
2018-06-10T02:07:50.577Z,23.50
2018-06-10T02:08:22.503Z,23.50
2018-06-10T02:08:54.230Z,23.60
2018-06-10T02:09:25.981Z,23.50
2018-06-10T02:09:57.726Z,23.60
2018-06-10T02:10:29.572Z,23.50
2018-06-10T02:11:01.277Z,23.50
2018-06-10T02:11:33.554Z,23.60
2018-06-10T02:12:05.297Z,23.50
2018-06-10T02:12:37.022Z,23.50
2018-06-10T02:13:08.907Z,23.50
2018-06-10T02:13:40.642Z,23.50
2018-06-10T02:14:12.360Z,23.50
2018-06-10T02:14:44.101Z,23.50
2018-06-10T02:15:15.855Z,23.50
2018-06-10T02:15:47.603Z,23.40
2018-06-10T02:16:19.556Z,23.50
2018-06-10T02:16:51.310Z,23.50
2018-06-10T02:17:23.044Z,23.50
2018-06-10T02:17:54.794Z,23.50
2018-06-10T02:18:26.519Z,23.40
2018-06-10T02:18:58.274Z,23.40
2018-06-10T02:19:30.019Z,23.50
2018-06-10T02:20:01.759Z,23.50
2018-06-10T02:20:33.478Z,23.40
2018-06-10T02:21:05.379Z,23.40
2018-06-10T02:21:37.105Z,23.40
2018-06-10T02:22:08.837Z,23.40
2018-06-10T02:22:40.580Z,23.40
2018-06-10T02:23:12.423Z,23.40
2018-06-10T02:23:44.172Z,23.40
2018-06-10T02:24:15.908Z,23.40
2018-06-10T02:24:47.641Z,23.40
2018-06-10T02:25:19.376Z,23.40
2018-06-10T02:25:51.133Z,23.40
2018-06-10T02:26:22.870Z,23.40
2018-06-10T02:26:54.626Z,23.40
2018-06-10T02:27:26.371Z,23.50
2018-06-10T02:27:58.128Z,23.40
2018-06-10T02:28:29.892Z,23.40
2018-06-10T02:29:01.609Z,23.40
2018-06-10T02:29:33.339Z,23.40
2018-06-10T02:30:05.060Z,23.40
2018-06-10T02:30:36.869Z,23.40
2018-06-10T02:31:08.685Z,23.40
2018-06-10T02:31:40.409Z,23.40
2018-06-10T02:32:12.418Z,23.40
2018-06-10T02:32:44.125Z,23.40
2018-06-10T02:33:47.884Z,23.40
2018-06-10T02:34:19.677Z,23.40
2018-06-10T02:34:51.394Z,23.40
2018-06-10T02:35:23.137Z,23.40
2018-06-10T02:35:54.866Z,23.40
2018-06-10T02:36:26.594Z,23.40
2018-06-10T02:36:58.330Z,23.40
2018-06-10T02:37:30.112Z,23.40
2018-06-10T02:38:01.986Z,23.30
2018-06-10T02:38:33.744Z,23.30
2018-06-10T02:39:05.491Z,23.30
2018-06-10T02:39:37.193Z,23.30
2018-06-10T02:40:08.909Z,23.30
2018-06-10T02:40:40.657Z,23.40
2018-06-10T02:41:12.349Z,23.40
2018-06-10T02:41:44.074Z,23.30
2018-06-10T02:42:15.803Z,23.30
2018-06-10T02:42:47.542Z,23.30
2018-06-10T02:43:19.248Z,23.30
2018-06-10T02:43:50.975Z,23.30
2018-06-10T02:44:22.700Z,23.30
2018-06-10T02:44:54.415Z,23.30
2018-06-10T02:45:26.173Z,23.30
2018-06-10T02:45:57.910Z,23.30
2018-06-10T02:46:29.628Z,23.30
2018-06-10T02:47:01.373Z,23.30
2018-06-10T02:47:33.104Z,23.40
2018-06-10T02:48:04.834Z,23.30
2018-06-10T02:48:36.607Z,23.30
2018-06-10T02:49:08.302Z,23.30
2018-06-10T02:49:40.041Z,23.30
2018-06-10T02:50:11.778Z,23.40
2018-06-10T02:50:43.497Z,23.30
2018-06-10T02:51:15.251Z,23.30
2018-06-10T02:51:46.990Z,23.30
2018-06-10T02:52:18.723Z,23.30
2018-06-10T02:52:50.451Z,23.40
2018-06-10T02:53:22.192Z,23.30
2018-06-10T02:54:26.016Z,23.40
2018-06-10T02:54:57.784Z,23.40
2018-06-10T02:56:01.514Z,23.40
2018-06-10T02:56:33.237Z,23.40
2018-06-10T02:57:04.969Z,23.40
2018-06-10T02:57:36.699Z,23.40
2018-06-10T02:58:08.427Z,23.40
2018-06-10T02:58:40.178Z,23.30
2018-06-10T02:59:11.905Z,23.30
2018-06-10T02:59:43.620Z,23.30
2018-06-10T03:00:15.338Z,23.30
2018-06-10T03:00:47.097Z,23.30
2018-06-10T03:01:18.876Z,23.30
2018-06-10T03:01:50.591Z,23.30
2018-06-10T03:02:22.321Z,23.30
2018-06-10T03:02:54.050Z,23.30
2018-06-10T03:03:25.801Z,23.30
2018-06-10T03:03:57.530Z,23.30
2018-06-10T03:04:29.254Z,23.30
2018-06-10T03:05:00.981Z,23.30
2018-06-10T03:05:32.726Z,23.30
2018-06-10T03:06:04.443Z,23.30
2018-06-10T03:06:36.377Z,23.30
2018-06-10T03:07:08.107Z,23.30
2018-06-10T03:07:39.839Z,23.30
2018-06-10T03:08:11.552Z,23.30
2018-06-10T03:08:43.276Z,23.30
2018-06-10T03:09:15.010Z,23.30
2018-06-10T03:09:46.724Z,23.30
2018-06-10T03:10:18.452Z,23.30
2018-06-10T03:10:50.187Z,23.30
2018-06-10T03:11:21.914Z,23.40
2018-06-10T03:11:53.631Z,23.30
2018-06-10T03:12:25.368Z,23.30
2018-06-10T03:12:57.074Z,23.30
2018-06-10T03:13:28.808Z,23.30
2018-06-10T03:14:00.570Z,23.30
2018-06-10T03:14:32.275Z,23.30
2018-06-10T03:15:04.017Z,23.30
2018-06-10T03:15:35.745Z,23.30
2018-06-10T03:16:07.475Z,23.30
2018-06-10T03:16:39.197Z,23.30
2018-06-10T03:17:10.976Z,23.30
2018-06-10T03:17:42.685Z,23.40
2018-06-10T03:18:14.417Z,23.40
2018-06-10T03:18:46.146Z,23.30
2018-06-10T03:19:17.876Z,23.30
2018-06-10T03:19:49.596Z,23.30
2018-06-10T03:20:21.336Z,23.30
2018-06-10T03:20:53.060Z,23.30
2018-06-10T03:21:24.786Z,23.30
2018-06-10T03:21:56.545Z,23.30
2018-06-10T03:22:28.274Z,23.30
2018-06-10T03:23:00.011Z,23.30
2018-06-10T03:23:31.793Z,23.30
2018-06-10T03:24:03.526Z,23.30
2018-06-10T03:24:35.252Z,23.30
2018-06-10T03:25:06.991Z,23.30
2018-06-10T03:25:38.730Z,23.30
2018-06-10T03:26:10.445Z,23.30
2018-06-10T03:26:42.164Z,23.30
2018-06-10T03:27:13.892Z,23.30
2018-06-10T03:27:45.620Z,23.30
2018-06-10T03:28:17.362Z,23.40
2018-06-10T03:28:49.092Z,23.40
2018-06-10T03:29:20.825Z,23.40
2018-06-10T03:29:52.603Z,23.40
2018-06-10T03:30:24.319Z,23.40
2018-06-10T03:30:56.024Z,23.40
2018-06-10T03:31:27.936Z,23.40
2018-06-10T03:31:59.682Z,23.40
2018-06-10T03:32:31.393Z,23.40
2018-06-10T03:33:03.129Z,23.40
2018-06-10T03:33:34.868Z,23.40
2018-06-10T03:34:06.619Z,23.40
2018-06-10T03:34:38.344Z,23.40
2018-06-10T03:35:10.082Z,23.40
2018-06-10T03:35:41.815Z,23.40
2018-06-10T03:36:13.535Z,23.40
2018-06-10T03:36:45.268Z,23.40
2018-06-10T03:37:16.993Z,23.40
2018-06-10T03:37:48.732Z,23.40
2018-06-10T03:38:20.500Z,23.40
2018-06-10T03:38:52.233Z,23.40
2018-06-10T03:39:23.965Z,23.40
2018-06-10T03:39:55.696Z,23.40
2018-06-10T03:40:27.427Z,23.40
2018-06-10T03:40:59.242Z,23.40
2018-06-10T03:42:03.023Z,23.50
2018-06-10T03:42:34.750Z,23.50
2018-06-10T03:43:06.492Z,23.50
2018-06-10T03:43:38.210Z,23.50
2018-06-10T03:44:09.938Z,23.50
2018-06-10T03:44:41.661Z,23.50
2018-06-10T03:45:13.392Z,23.50
2018-06-10T03:45:45.193Z,23.50
2018-06-10T03:46:48.910Z,23.50
2018-06-10T03:47:20.649Z,23.50
2018-06-10T03:47:52.431Z,23.50
2018-06-10T03:48:24.188Z,23.50
2018-06-10T03:48:56.126Z,23.50
2018-06-10T03:49:27.891Z,23.50
2018-06-10T03:49:59.620Z,23.50
2018-06-10T03:50:31.345Z,23.50
2018-06-10T03:51:03.093Z,23.50
2018-06-10T03:51:34.808Z,23.50
2018-06-10T03:52:06.552Z,23.50
2018-06-10T03:52:38.306Z,23.50
2018-06-10T03:53:10.050Z,23.50
2018-06-10T03:53:41.773Z,23.50
2018-06-10T03:54:13.532Z,23.50
2018-06-10T03:54:45.250Z,23.50
2018-06-10T03:55:16.978Z,23.50
2018-06-10T03:55:48.702Z,23.50
2018-06-10T03:56:52.463Z,23.50
2018-06-10T03:57:24.253Z,23.50
2018-06-10T03:57:56.023Z,23.50
2018-06-10T03:58:27.796Z,23.50
2018-06-10T03:58:59.541Z,23.50
2018-06-10T03:59:31.298Z,23.50
2018-06-10T04:00:03.023Z,23.50
2018-06-10T04:00:34.756Z,23.50
2018-06-10T04:01:06.518Z,23.50
2018-06-10T04:01:38.232Z,23.60
2018-06-10T04:02:09.964Z,23.60
2018-06-10T04:02:41.724Z,23.60
2018-06-10T04:03:13.453Z,23.60
2018-06-10T04:03:45.188Z,23.60
2018-06-10T04:04:16.938Z,23.60
2018-06-10T04:04:48.673Z,23.60
2018-06-10T04:05:20.452Z,23.60
2018-06-10T04:05:52.184Z,23.60
2018-06-10T04:06:23.887Z,23.60
2018-06-10T04:06:55.606Z,23.60
2018-06-10T04:07:27.385Z,23.60
2018-06-10T04:07:59.106Z,23.60
2018-06-10T04:08:30.846Z,23.60
2018-06-10T04:09:02.596Z,23.60
2018-06-10T04:09:34.336Z,23.60
2018-06-10T04:10:06.062Z,23.60
2018-06-10T04:10:37.815Z,23.60
2018-06-10T04:11:09.530Z,23.60
2018-06-10T04:11:41.269Z,23.60
2018-06-10T04:12:13.008Z,23.60
2018-06-10T04:12:44.738Z,23.60
2018-06-10T04:13:16.465Z,23.60
2018-06-10T04:13:48.202Z,23.60
2018-06-10T04:14:19.904Z,23.60
2018-06-10T04:14:51.647Z,23.60
2018-06-10T04:15:23.374Z,23.60
2018-06-10T04:15:55.099Z,23.60
2018-06-10T04:16:26.850Z,23.60
2018-06-10T04:16:58.582Z,23.60
2018-06-10T04:17:30.315Z,23.60
2018-06-10T04:18:02.053Z,23.60
2018-06-10T04:18:33.820Z,23.60
2018-06-10T04:19:05.543Z,23.60
2018-06-10T04:19:37.534Z,23.60
2018-06-10T04:20:09.251Z,23.50
2018-06-10T04:20:40.974Z,23.50
2018-06-10T04:21:12.722Z,23.50
2018-06-10T04:21:44.473Z,23.50
2018-06-10T04:22:16.229Z,23.50
2018-06-10T04:22:47.965Z,23.50
2018-06-10T04:23:19.893Z,23.50
2018-06-10T04:23:51.628Z,23.50
2018-06-10T04:24:23.351Z,23.50
2018-06-10T04:24:55.109Z,23.50
2018-06-10T04:25:26.841Z,23.50
2018-06-10T04:25:58.569Z,23.50
2018-06-10T04:26:30.298Z,23.50
2018-06-10T04:27:02.037Z,23.50
2018-06-10T04:27:33.750Z,23.50
2018-06-10T04:28:05.482Z,23.40
2018-06-10T04:28:37.241Z,23.40
2018-06-10T04:29:08.972Z,23.40
2018-06-10T04:29:40.702Z,23.40
2018-06-10T04:30:12.449Z,23.50
2018-06-10T04:30:44.176Z,23.50
2018-06-10T04:31:15.888Z,23.50
2018-06-10T04:31:47.655Z,23.40
2018-06-10T04:32:19.373Z,23.50
2018-06-10T04:32:51.096Z,23.50
2018-06-10T04:33:22.825Z,23.50
2018-06-10T04:33:54.560Z,23.40
2018-06-10T04:34:26.391Z,23.40
2018-06-10T04:34:58.127Z,23.40
2018-06-10T04:35:29.851Z,23.40
2018-06-10T04:36:01.585Z,23.40
2018-06-10T04:36:33.314Z,23.40
2018-06-10T04:37:05.040Z,23.40
2018-06-10T04:37:36.763Z,23.40
2018-06-10T04:38:08.514Z,23.40
2018-06-10T04:38:40.237Z,23.40
2018-06-10T04:39:11.958Z,23.40
2018-06-10T04:39:43.690Z,23.40
2018-06-10T04:40:15.461Z,23.40
2018-06-10T04:40:47.174Z,23.40
2018-06-10T04:41:18.923Z,23.40
2018-06-10T04:41:50.633Z,23.40
2018-06-10T04:42:22.354Z,23.40
2018-06-10T04:42:54.091Z,23.40
2018-06-10T04:43:25.822Z,23.40
2018-06-10T04:43:57.538Z,23.40
2018-06-10T04:44:29.285Z,23.40
2018-06-10T04:45:01.010Z,23.40
2018-06-10T04:45:32.743Z,23.40
2018-06-10T04:46:04.484Z,23.40
2018-06-10T04:46:36.206Z,23.40
2018-06-10T04:47:07.963Z,23.40
2018-06-10T04:47:39.868Z,23.40
2018-06-10T04:48:11.617Z,23.40
2018-06-10T04:48:43.391Z,23.40
2018-06-10T04:49:47.103Z,23.40
2018-06-10T04:50:18.850Z,23.40
2018-06-10T04:50:50.585Z,23.40
2018-06-10T04:51:22.511Z,23.40
2018-06-10T04:51:54.250Z,23.40
2018-06-10T04:52:25.992Z,23.40
2018-06-10T04:52:57.741Z,23.40
2018-06-10T04:53:29.666Z,23.40
2018-06-10T04:54:01.401Z,23.40
2018-06-10T04:54:33.325Z,23.40
2018-06-10T04:55:05.049Z,23.40
2018-06-10T04:55:36.773Z,23.40
2018-06-10T04:56:08.500Z,23.40
2018-06-10T04:56:40.220Z,23.30
2018-06-10T04:57:43.970Z,23.30
2018-06-10T04:58:15.704Z,23.30
2018-06-10T04:58:47.445Z,23.30
2018-06-10T04:59:19.180Z,23.30
2018-06-10T04:59:50.910Z,23.30
2018-06-10T05:00:22.649Z,23.30
2018-06-10T05:00:54.382Z,23.30
2018-06-10T05:01:26.108Z,23.30
2018-06-10T05:01:57.863Z,23.30
2018-06-10T05:02:29.580Z,23.30
2018-06-10T05:03:01.307Z,23.30
2018-06-10T05:03:33.062Z,23.40
2018-06-10T05:04:04.814Z,23.40
2018-06-10T05:04:36.542Z,23.40
2018-06-10T05:05:08.324Z,23.40
2018-06-10T05:05:40.027Z,23.30
2018-06-10T05:06:11.746Z,23.30
2018-06-10T05:06:43.493Z,23.30
2018-06-10T05:07:47.229Z,23.30
2018-06-10T05:08:18.952Z,23.30
2018-06-10T05:08:50.710Z,23.30
2018-06-10T05:09:22.426Z,23.30
2018-06-10T05:09:54.149Z,23.30
2018-06-10T05:10:25.868Z,23.30
2018-06-10T05:10:57.632Z,23.30
2018-06-10T05:11:29.339Z,23.30
2018-06-10T05:12:01.074Z,23.30
2018-06-10T05:12:32.804Z,23.30
2018-06-10T05:13:04.535Z,23.30
2018-06-10T05:13:36.269Z,23.30
2018-06-10T05:14:08.038Z,23.30
2018-06-10T05:15:11.800Z,23.30
2018-06-10T05:16:15.518Z,23.30
2018-06-10T05:16:47.261Z,23.20
2018-06-10T05:17:18.989Z,23.20
2018-06-10T05:17:50.710Z,23.30
2018-06-10T05:18:22.441Z,23.30
2018-06-10T05:18:54.151Z,23.30
2018-06-10T05:19:25.878Z,23.30
2018-06-10T05:19:57.646Z,23.20
2018-06-10T05:20:29.544Z,23.20
2018-06-10T05:21:01.267Z,23.30
2018-06-10T05:21:33.006Z,23.30
2018-06-10T05:22:05.122Z,23.30
2018-06-10T05:22:36.851Z,23.30
2018-06-10T05:23:08.580Z,23.30
2018-06-10T05:23:40.314Z,23.30
2018-06-10T05:24:12.053Z,23.30
2018-06-10T05:24:44.050Z,23.30
2018-06-10T05:25:17.878Z,23.30
2018-06-10T05:25:50.833Z,23.30
2018-06-10T05:26:22.560Z,23.30
2018-06-10T05:26:54.289Z,23.30
2018-06-10T05:27:26.037Z,23.30
2018-06-10T05:27:57.767Z,23.30
2018-06-10T05:28:29.521Z,23.30
2018-06-10T05:29:01.265Z,23.30
2018-06-10T05:29:32.997Z,23.30
2018-06-10T05:30:04.718Z,23.30
2018-06-10T05:30:36.438Z,23.30
2018-06-10T05:31:08.162Z,23.30
2018-06-10T05:31:39.878Z,23.30
2018-06-10T05:32:11.695Z,23.30
2018-06-10T05:32:43.395Z,23.30
2018-06-10T05:33:15.121Z,23.30
2018-06-10T05:33:46.871Z,23.30
2018-06-10T05:34:18.574Z,23.30
2018-06-10T05:34:50.319Z,23.20
2018-06-10T05:35:22.035Z,23.30
2018-06-10T05:35:53.761Z,23.30
2018-06-10T05:36:57.518Z,23.30
2018-06-10T05:37:29.251Z,23.20
2018-06-10T05:38:00.996Z,23.20
2018-06-10T05:38:32.708Z,23.30
2018-06-10T05:39:04.437Z,23.30
2018-06-10T05:39:36.170Z,23.30
2018-06-10T05:40:07.909Z,23.30
2018-06-10T05:40:39.832Z,23.30
2018-06-10T05:41:11.569Z,23.30
2018-06-10T05:41:43.315Z,23.40
2018-06-10T05:42:15.056Z,23.40
2018-06-10T05:42:46.794Z,23.30
2018-06-10T05:43:18.533Z,23.40
2018-06-10T05:43:50.254Z,23.40
2018-06-10T05:44:21.995Z,23.40
2018-06-10T05:44:53.750Z,23.40
2018-06-10T05:45:25.503Z,23.40
2018-06-10T05:45:57.227Z,23.40
2018-06-10T05:46:28.973Z,23.40
2018-06-10T05:47:00.745Z,23.40
2018-06-10T05:47:32.597Z,23.40
2018-06-10T05:48:04.294Z,23.40
2018-06-10T05:48:36.017Z,23.40
2018-06-10T05:49:07.782Z,23.40
2018-06-10T05:49:39.507Z,23.40
2018-06-10T05:50:11.255Z,23.50
2018-06-10T05:50:43.007Z,23.40
2018-06-10T05:51:14.774Z,23.50
2018-06-10T05:51:46.691Z,23.50
2018-06-10T05:52:18.421Z,23.50
2018-06-10T05:52:50.142Z,23.50
2018-06-10T05:53:21.887Z,23.50
2018-06-10T05:53:53.618Z,23.50
2018-06-10T05:54:25.345Z,23.50
2018-06-10T05:55:29.055Z,23.50
2018-06-10T05:56:00.797Z,23.50
2018-06-10T05:56:32.527Z,23.50
2018-06-10T05:57:04.267Z,23.50
2018-06-10T05:57:36.014Z,23.50
2018-06-10T05:58:07.730Z,23.50
2018-06-10T05:58:39.496Z,23.50
2018-06-10T05:59:11.261Z,23.60
2018-06-10T05:59:43.002Z,23.60
2018-06-10T06:00:14.726Z,23.50
2018-06-10T06:00:46.458Z,23.50
2018-06-10T06:01:18.206Z,23.50
2018-06-10T06:01:50.001Z,23.60
2018-06-10T06:02:21.694Z,23.60
2018-06-10T06:03:25.427Z,23.60
2018-06-10T06:03:57.170Z,23.50
2018-06-10T06:04:29.191Z,23.50
2018-06-10T06:05:00.915Z,23.50
2018-06-10T06:05:32.842Z,23.50
2018-06-10T06:06:04.569Z,23.50
2018-06-10T06:06:36.342Z,23.50
2018-06-10T06:07:08.081Z,23.50
2018-06-10T06:07:39.812Z,23.50
2018-06-10T06:08:11.619Z,23.50
2018-06-10T06:08:43.352Z,23.50
2018-06-10T06:09:15.118Z,23.50
2018-06-10T06:09:46.857Z,23.50
2018-06-10T06:10:18.597Z,23.50
2018-06-10T06:10:50.326Z,23.50
2018-06-10T06:11:22.240Z,23.50
2018-06-10T06:11:53.962Z,23.50
2018-06-10T06:12:25.716Z,23.50
2018-06-10T06:12:57.456Z,23.50
2018-06-10T06:13:29.171Z,23.50
2018-06-10T06:14:00.916Z,23.50
2018-06-10T06:14:32.658Z,23.50
2018-06-10T06:15:04.398Z,23.50
2018-06-10T06:15:36.141Z,23.50
2018-06-10T06:16:07.915Z,23.50
2018-06-10T06:16:39.642Z,23.50
2018-06-10T06:17:11.362Z,23.50
2018-06-10T06:17:43.070Z,23.50
2018-06-10T06:18:14.800Z,23.50
2018-06-10T06:18:46.533Z,23.50
2018-06-10T06:19:18.254Z,23.50
2018-06-10T06:19:50.021Z,23.50
2018-06-10T06:20:21.734Z,23.50
2018-06-10T06:20:53.474Z,23.50
2018-06-10T06:21:25.207Z,23.50
2018-06-10T06:21:57.065Z,23.50
2018-06-10T06:22:28.799Z,23.50
2018-06-10T06:23:00.517Z,23.50
2018-06-10T06:23:32.242Z,23.50
2018-06-10T06:24:03.986Z,23.50
2018-06-10T06:24:35.697Z,23.50
2018-06-10T06:25:07.442Z,23.50
2018-06-10T06:25:39.185Z,23.50
2018-06-10T06:26:10.903Z,23.40
2018-06-10T06:26:42.622Z,23.50
2018-06-10T06:27:14.367Z,23.50
2018-06-10T06:27:46.083Z,23.50
2018-06-10T06:28:17.809Z,23.50
2018-06-10T06:28:49.549Z,23.50
2018-06-10T06:29:21.286Z,23.50
2018-06-10T06:29:53.041Z,23.50
2018-06-10T06:30:24.766Z,23.50
2018-06-10T06:30:56.558Z,23.50
2018-06-10T06:31:28.289Z,23.50
2018-06-10T06:32:00.018Z,23.50
2018-06-10T06:32:31.740Z,23.50
2018-06-10T06:33:03.479Z,23.50
2018-06-10T06:33:35.210Z,23.40
2018-06-10T06:34:06.935Z,23.40
2018-06-10T06:34:38.674Z,23.40
2018-06-10T06:35:10.428Z,23.40
2018-06-10T06:35:42.149Z,23.50
2018-06-10T06:36:13.865Z,23.50
2018-06-10T06:36:45.612Z,23.50
2018-06-10T06:37:17.349Z,23.50
2018-06-10T06:37:49.066Z,23.50
2018-06-10T06:38:20.815Z,23.50
2018-06-10T06:38:52.549Z,23.50
2018-06-10T06:39:24.303Z,23.60
2018-06-10T06:39:56.270Z,23.60
2018-06-10T06:40:28.189Z,23.60
2018-06-10T06:40:59.923Z,23.60
2018-06-10T06:41:31.657Z,23.60
2018-06-10T06:42:03.400Z,23.60
2018-06-10T06:42:35.132Z,23.60
2018-06-10T06:43:06.890Z,23.60
2018-06-10T06:43:38.696Z,23.60
2018-06-10T06:44:10.459Z,23.60
2018-06-10T06:44:42.177Z,23.60
2018-06-10T06:45:13.903Z,23.60
2018-06-10T06:45:45.829Z,23.60
2018-06-10T06:46:17.582Z,23.50
2018-06-10T06:46:49.296Z,23.60
2018-06-10T06:47:21.022Z,23.60
2018-06-10T06:47:52.850Z,23.60
2018-06-10T06:48:24.597Z,23.60
2018-06-10T06:48:56.374Z,23.60
2018-06-10T06:49:28.087Z,23.60
2018-06-10T06:49:59.813Z,23.60
2018-06-10T06:50:31.522Z,23.60
2018-06-10T06:51:03.252Z,23.70
2018-06-10T06:51:35.032Z,23.70
2018-06-10T06:52:06.788Z,23.70
2018-06-10T06:52:38.537Z,23.70
2018-06-10T06:53:10.442Z,23.70
2018-06-10T06:53:42.199Z,23.60
2018-06-10T06:54:13.927Z,23.60
2018-06-10T06:54:45.653Z,23.60
2018-06-10T06:55:17.379Z,23.60
2018-06-10T06:55:49.126Z,23.60
2018-06-10T06:56:20.850Z,23.60
2018-06-10T06:56:52.582Z,23.60
2018-06-10T06:57:24.330Z,23.60
2018-06-10T06:57:56.076Z,23.60
2018-06-10T06:58:27.985Z,23.60
2018-06-10T06:58:59.743Z,23.60
2018-06-10T06:59:31.527Z,23.60